sensor_id;sensor_type;location;lat;lon;timestamp;pressure;altitude;pressure_sealevel;temperature;humidity
75505;BME280;64085;54.974;73.410;2022-10-16T00:01:09;100522.69;;;9.71;59.94
75505;BME280;64085;54.974;73.410;2022-10-16T00:03:37;100518.06;;;9.63;59.82
75505;BME280;64085;54.974;73.410;2022-10-16T00:06:03;100482.84;;;9.35;60.08
75505;BME280;64085;54.974;73.410;2022-10-16T00:08:30;100511.28;;;9.60;59.57
75505;BME280;64085;54.974;73.410;2022-10-16T00:11:10;100512.56;;;9.63;59.93
75505;BME280;64085;54.974;73.410;2022-10-16T00:13:39;100509.34;;;9.61;60.49
75505;BME280;64085;54.974;73.410;2022-10-16T00:16:06;100503.00;;;9.60;60.65
75505;BME280;64085;54.974;73.410;2022-10-16T00:18:32;100511.03;;;9.53;60.59
75505;BME280;64085;54.974;73.410;2022-10-16T00:21:03;100475.00;;;9.25;60.31
75505;BME280;64085;54.974;73.410;2022-10-16T00:23:29;100486.63;;;9.30;60.60
75505;BME280;64085;54.974;73.410;2022-10-16T00:25:56;100502.31;;;9.51;60.47
75505;BME280;64085;54.974;73.410;2022-10-16T00:28:22;100480.09;;;9.35;60.37
75505;BME280;64085;54.974;73.410;2022-10-16T00:30:49;100452.09;;;9.12;60.56
75505;BME280;64085;54.974;73.410;2022-10-16T00:33:14;100513.47;;;9.54;60.32
75505;BME280;64085;54.974;73.410;2022-10-16T00:35:40;100514.34;;;9.46;60.41
75505;BME280;64085;54.974;73.410;2022-10-16T00:38:06;100509.41;;;9.40;60.19
75505;BME280;64085;54.974;73.410;2022-10-16T00:40:31;100508.47;;;9.36;60.03
75505;BME280;64085;54.974;73.410;2022-10-16T00:42:57;100505.94;;;9.30;60.20
75505;BME280;64085;54.974;73.410;2022-10-16T00:45:24;100493.63;;;9.28;60.23
75505;BME280;64085;54.974;73.410;2022-10-16T00:47:50;100467.13;;;9.02;60.56
75505;BME280;64085;54.974;73.410;2022-10-16T00:52:54;100497.88;;;9.25;60.36
75505;BME280;64085;54.974;73.410;2022-10-16T00:55:20;100406.81;;;8.68;60.43
75505;BME280;64085;54.974;73.410;2022-10-16T00:57:46;100454.56;;;8.93;59.92
75505;BME280;64085;54.974;73.410;2022-10-16T01:00:17;100501.19;;;9.19;60.11
75505;BME280;64085;54.974;73.410;2022-10-16T01:02:43;100492.66;;;9.12;59.29
75505;BME280;64085;54.974;73.410;2022-10-16T01:05:09;100486.16;;;8.95;60.25
75505;BME280;64085;54.974;73.410;2022-10-16T01:08:14;100501.97;;;8.86;59.90
75505;BME280;64085;54.974;73.410;2022-10-16T01:10:57;100486.41;;;8.69;59.87
75505;BME280;64085;54.974;73.410;2022-10-16T01:13:38;100432.06;;;8.28;60.13
75505;BME280;64085;54.974;73.410;2022-10-16T01:16:18;100500.28;;;8.73;60.29
75505;BME280;64085;54.974;73.410;2022-10-16T01:18:56;100499.22;;;8.65;60.99
75505;BME280;64085;54.974;73.410;2022-10-16T01:21:36;100496.53;;;8.57;60.72
75505;BME280;64085;54.974;73.410;2022-10-16T01:29:48;100506.00;;;8.47;60.08
75505;BME280;64085;54.974;73.410;2022-10-16T01:34:56;100454.22;;;8.11;60.64
75505;BME280;64085;54.974;73.410;2022-10-16T01:37:33;100503.59;;;8.45;59.80
75505;BME280;64085;54.974;73.410;2022-10-16T01:40:02;100495.00;;;8.47;59.66
75505;BME280;64085;54.974;73.410;2022-10-16T01:42:35;100488.81;;;8.50;59.05
75505;BME280;64085;54.974;73.410;2022-10-16T01:45:04;100488.88;;;8.62;59.08
75505;BME280;64085;54.974;73.410;2022-10-16T01:47:33;100492.59;;;8.66;58.51
75505;BME280;64085;54.974;73.410;2022-10-16T01:50:02;100483.03;;;8.64;58.40
75505;BME280;64085;54.974;73.410;2022-10-16T01:52:32;100475.63;;;8.56;58.24
75505;BME280;64085;54.974;73.410;2022-10-16T01:55:03;100491.19;;;8.60;58.09
75505;BME280;64085;54.974;73.410;2022-10-16T01:57:31;100495.44;;;8.49;58.80
75505;BME280;64085;54.974;73.410;2022-10-16T02:00:03;100483.56;;;8.36;58.37
75505;BME280;64085;54.974;73.410;2022-10-16T02:02:30;100422.38;;;8.01;58.48
75505;BME280;64085;54.974;73.410;2022-10-16T02:05:08;100486.47;;;8.31;58.33
75505;BME280;64085;54.974;73.410;2022-10-16T02:07:36;100485.97;;;8.38;57.27
75505;BME280;64085;54.974;73.410;2022-10-16T02:10:02;100485.97;;;8.38;57.74
75505;BME280;64085;54.974;73.410;2022-10-16T02:12:31;100475.44;;;8.40;56.59
75505;BME280;64085;54.974;73.410;2022-10-16T02:14:57;100456.81;;;8.37;56.81
75505;BME280;64085;54.974;73.410;2022-10-16T02:17:24;100475.84;;;8.51;56.70
75505;BME280;64085;54.974;73.410;2022-10-16T02:19:52;100471.16;;;8.51;56.19
75505;BME280;64085;54.974;73.410;2022-10-16T02:22:28;100475.50;;;8.52;56.61
75505;BME280;64085;54.974;73.410;2022-10-16T02:25:08;100476.16;;;8.49;57.24
75505;BME280;64085;54.974;73.410;2022-10-16T02:30:21;100479.53;;;8.55;57.04
75505;BME280;64085;54.974;73.410;2022-10-16T02:32:51;100468.50;;;8.55;57.30
75505;BME280;64085;54.974;73.410;2022-10-16T02:35:18;100476.72;;;8.63;57.33
75505;BME280;64085;54.974;73.410;2022-10-16T02:37:47;100485.38;;;8.74;56.92
75505;BME280;64085;54.974;73.410;2022-10-16T02:40:15;100484.19;;;8.84;55.82
75505;BME280;64085;54.974;73.410;2022-10-16T02:42:41;100480.19;;;8.93;55.27
75505;BME280;64085;54.974;73.410;2022-10-16T02:45:09;100432.75;;;8.67;54.80
75505;BME280;64085;54.974;73.410;2022-10-16T02:47:35;100496.38;;;8.95;54.39
75505;BME280;64085;54.974;73.410;2022-10-16T02:50:01;100486.06;;;9.04;54.18
75505;BME280;64085;54.974;73.410;2022-10-16T02:52:26;100487.50;;;9.10;53.87
75505;BME280;64085;54.974;73.410;2022-10-16T02:54:52;100464.97;;;9.08;53.75
75505;BME280;64085;54.974;73.410;2022-10-16T02:57:18;100474.41;;;9.19;53.84
75505;BME280;64085;54.974;73.410;2022-10-16T02:59:44;100489.13;;;9.23;53.42
75505;BME280;64085;54.974;73.410;2022-10-16T03:02:11;100477.72;;;9.13;54.13
75505;BME280;64085;54.974;73.410;2022-10-16T03:04:37;100486.94;;;9.17;54.28
75505;BME280;64085;54.974;73.410;2022-10-16T03:07:03;100476.13;;;9.24;54.22
75505;BME280;64085;54.974;73.410;2022-10-16T03:09:29;100458.88;;;9.15;53.63
75505;BME280;64085;54.974;73.410;2022-10-16T03:11:55;100458.47;;;9.37;52.56
75505;BME280;64085;54.974;73.410;2022-10-16T03:14:21;100465.84;;;9.45;52.98
75505;BME280;64085;54.974;73.410;2022-10-16T03:16:46;100426.28;;;9.29;52.74
75505;BME280;64085;54.974;73.410;2022-10-16T03:19:12;100465.97;;;9.73;52.02
75505;BME280;64085;54.974;73.410;2022-10-16T03:21:38;100443.66;;;9.54;51.78
75505;BME280;64085;54.974;73.410;2022-10-16T03:24:04;100437.56;;;9.73;51.62
75505;BME280;64085;54.974;73.410;2022-10-16T03:26:30;100476.69;;;10.11;51.14
75505;BME280;64085;54.974;73.410;2022-10-16T03:28:55;100459.41;;;10.14;50.43
75505;BME280;64085;54.974;73.410;2022-10-16T03:31:21;100464.34;;;10.33;50.24
75505;BME280;64085;54.974;73.410;2022-10-16T03:33:47;100459.06;;;10.28;50.11
75505;BME280;64085;54.974;73.410;2022-10-16T03:36:13;100465.59;;;10.48;49.62
75505;BME280;64085;54.974;73.410;2022-10-16T03:38:38;100431.69;;;11.07;47.51
75505;BME280;64085;54.974;73.410;2022-10-16T03:41:04;100463.31;;;13.10;43.81
75505;BME280;64085;54.974;73.410;2022-10-16T03:43:30;100452.38;;;15.39;39.05
75505;BME280;64085;54.974;73.410;2022-10-16T03:45:56;100466.13;;;19.04;33.75
75505;BME280;64085;54.974;73.410;2022-10-16T03:48:22;100439.88;;;21.04;29.27
75505;BME280;64085;54.974;73.410;2022-10-16T03:50:47;100454.31;;;21.60;29.08
75505;BME280;64085;54.974;73.410;2022-10-16T03:53:14;100422.16;;;18.94;30.21
75505;BME280;64085;54.974;73.410;2022-10-16T03:55:43;100453.44;;;16.96;33.27
75505;BME280;64085;54.974;73.410;2022-10-16T03:58:09;100457.66;;;15.92;35.85
75505;BME280;64085;54.974;73.410;2022-10-16T04:00:35;100451.13;;;15.74;36.45
75505;BME280;64085;54.974;73.410;2022-10-16T04:03:01;100465.69;;;14.82;37.41
75505;BME280;64085;54.974;73.410;2022-10-16T04:05:27;100462.78;;;15.46;36.77
75505;BME280;64085;54.974;73.410;2022-10-16T04:07:56;100465.41;;;15.65;36.81
75505;BME280;64085;54.974;73.410;2022-10-16T04:10:21;100457.63;;;16.51;35.69
75505;BME280;64085;54.974;73.410;2022-10-16T04:12:47;100454.78;;;17.66;33.96
75505;BME280;64085;54.974;73.410;2022-10-16T04:15:13;100457.16;;;18.36;32.52
75505;BME280;64085;54.974;73.410;2022-10-16T04:17:39;100457.78;;;18.93;31.87
75505;BME280;64085;54.974;73.410;2022-10-16T04:20:05;100420.78;;;19.23;30.50
75505;BME280;64085;54.974;73.410;2022-10-16T04:22:31;100453.31;;;21.97;26.78
75505;BME280;64085;54.974;73.410;2022-10-16T04:24:57;100445.66;;;24.92;23.74
75505;BME280;64085;54.974;73.410;2022-10-16T04:27:22;100454.28;;;26.73;21.73
75505;BME280;64085;54.974;73.410;2022-10-16T04:29:48;100453.97;;;26.36;21.12
75505;BME280;64085;54.974;73.410;2022-10-16T04:32:14;100448.09;;;24.65;23.63
75505;BME280;64085;54.974;73.410;2022-10-16T04:34:40;100428.44;;;22.98;24.65
75505;BME280;64085;54.974;73.410;2022-10-16T04:37:06;100452.06;;;21.75;26.27
75505;BME280;64085;54.974;73.410;2022-10-16T04:39:31;100452.81;;;21.28;26.31
75505;BME280;64085;54.974;73.410;2022-10-16T04:41:57;100449.88;;;20.74;26.95
75505;BME280;64085;54.974;73.410;2022-10-16T04:44:23;100447.16;;;20.67;26.97
75505;BME280;64085;54.974;73.410;2022-10-16T04:46:51;100452.66;;;22.96;23.98
75505;BME280;64085;54.974;73.410;2022-10-16T04:49:16;100449.81;;;22.76;24.15
75505;BME280;64085;54.974;73.410;2022-10-16T04:51:42;100435.50;;;21.80;24.88
75505;BME280;64085;54.974;73.410;2022-10-16T04:54:09;100415.38;;;21.58;25.50
75505;BME280;64085;54.974;73.410;2022-10-16T04:56:35;100450.38;;;21.81;25.12
75505;BME280;64085;54.974;73.410;2022-10-16T04:59:08;100452.63;;;21.08;25.30
75505;BME280;64085;54.974;73.410;2022-10-16T05:01:34;100442.47;;;22.19;24.31
75505;BME280;64085;54.974;73.410;2022-10-16T05:04:00;100444.47;;;22.42;23.94
75505;BME280;64085;54.974;73.410;2022-10-16T05:06:26;100438.78;;;23.05;23.65
75505;BME280;64085;54.974;73.410;2022-10-16T05:08:52;100437.88;;;27.20;19.56
75505;BME280;64085;54.974;73.410;2022-10-16T05:11:18;100442.59;;;24.87;21.39
75505;BME280;64085;54.974;73.410;2022-10-16T05:13:44;100438.34;;;22.87;23.14
75505;BME280;64085;54.974;73.410;2022-10-16T05:16:09;100435.16;;;21.78;24.56
75505;BME280;64085;54.974;73.410;2022-10-16T05:18:35;100437.63;;;21.19;25.22
75505;BME280;64085;54.974;73.410;2022-10-16T05:21:02;100435.50;;;21.26;25.04
75505;BME280;64085;54.974;73.410;2022-10-16T05:23:28;100426.28;;;21.26;25.03
75505;BME280;64085;54.974;73.410;2022-10-16T05:25:55;100433.34;;;21.64;24.54
75505;BME280;64085;54.974;73.410;2022-10-16T05:28:27;100437.47;;;22.07;23.53
75505;BME280;64085;54.974;73.410;2022-10-16T05:30:56;100437.06;;;22.91;22.83
75505;BME280;64085;54.974;73.410;2022-10-16T05:33:24;100442.00;;;22.44;23.57
75505;BME280;64085;54.974;73.410;2022-10-16T05:35:51;100431.44;;;21.58;24.34
75505;BME280;64085;54.974;73.410;2022-10-16T05:38:18;100448.75;;;20.99;25.45
75505;BME280;64085;54.974;73.410;2022-10-16T05:40:50;100415.63;;;20.87;25.48
75505;BME280;64085;54.974;73.410;2022-10-16T05:43:16;100443.13;;;20.99;25.55
75505;BME280;64085;54.974;73.410;2022-10-16T05:45:42;100446.47;;;21.21;25.29
75505;BME280;64085;54.974;73.410;2022-10-16T05:48:08;100446.09;;;20.88;25.69
75505;BME280;64085;54.974;73.410;2022-10-16T05:50:33;100441.16;;;20.28;26.38
75505;BME280;64085;54.974;73.410;2022-10-16T05:52:59;100430.69;;;21.30;25.46
75505;BME280;64085;54.974;73.410;2022-10-16T05:55:25;100442.41;;;22.46;23.63
75505;BME280;64085;54.974;73.410;2022-10-16T05:57:54;100402.97;;;21.56;24.64
75505;BME280;64085;54.974;73.410;2022-10-16T06:00:20;100429.94;;;22.83;23.28
75505;BME280;64085;54.974;73.410;2022-10-16T06:02:46;100396.00;;;22.31;23.47
75505;BME280;64085;54.974;73.410;2022-10-16T06:05:11;100429.88;;;21.26;25.07
75505;BME280;64085;54.974;73.410;2022-10-16T06:07:37;100430.19;;;20.03;26.68
75505;BME280;64085;54.974;73.410;2022-10-16T06:10:04;100410.97;;;18.94;28.56
75505;BME280;64085;54.974;73.410;2022-10-16T06:12:29;100427.13;;;18.47;29.55
75505;BME280;64085;54.974;73.410;2022-10-16T06:14:55;100432.41;;;18.13;29.86
75505;BME280;64085;54.974;73.410;2022-10-16T06:17:21;100444.41;;;18.06;29.96
75505;BME280;64085;54.974;73.410;2022-10-16T06:19:47;100442.41;;;17.64;30.80
75505;BME280;64085;54.974;73.410;2022-10-16T06:22:12;100438.78;;;17.45;31.53
75505;BME280;64085;54.974;73.410;2022-10-16T06:24:38;100404.44;;;17.09;31.15
75505;BME280;64085;54.974;73.410;2022-10-16T06:27:04;100389.69;;;17.16;31.11
75505;BME280;64085;54.974;73.410;2022-10-16T06:29:30;100428.78;;;17.23;31.67
75505;BME280;64085;54.974;73.410;2022-10-16T06:31:55;100427.59;;;17.17;31.65
75505;BME280;64085;54.974;73.410;2022-10-16T06:34:22;100428.00;;;17.33;32.07
75505;BME280;64085;54.974;73.410;2022-10-16T06:36:47;100424.84;;;17.53;31.92
75505;BME280;64085;54.974;73.410;2022-10-16T06:39:13;100386.88;;;17.30;31.60
75505;BME280;64085;54.974;73.410;2022-10-16T06:41:39;100413.66;;;17.53;32.17
75505;BME280;64085;54.974;73.410;2022-10-16T06:44:06;100420.06;;;17.67;31.81
75505;BME280;64085;54.974;73.410;2022-10-16T06:46:33;100413.66;;;17.60;32.10
75505;BME280;64085;54.974;73.410;2022-10-16T06:48:59;100414.06;;;17.94;31.77
75505;BME280;64085;54.974;73.410;2022-10-16T06:51:25;100378.09;;;17.99;31.26
75505;BME280;64085;54.974;73.410;2022-10-16T06:53:53;100423.91;;;18.52;31.42
75505;BME280;64085;54.974;73.410;2022-10-16T06:56:21;100413.50;;;18.56;31.67
75505;BME280;64085;54.974;73.410;2022-10-16T06:58:48;100407.03;;;18.73;31.56
75505;BME280;64085;54.974;73.410;2022-10-16T07:01:16;100389.84;;;18.71;31.54
75505;BME280;64085;54.974;73.410;2022-10-16T07:03:44;100398.81;;;19.18;31.58
75505;BME280;64085;54.974;73.410;2022-10-16T07:06:12;100409.38;;;19.48;31.08
75505;BME280;64085;54.974;73.410;2022-10-16T07:08:40;100397.56;;;19.75;30.69
75505;BME280;64085;54.974;73.410;2022-10-16T07:11:14;100388.28;;;19.85;30.67
75505;BME280;64085;54.974;73.410;2022-10-16T07:13:42;100366.47;;;19.55;31.21
75505;BME280;64085;54.974;73.410;2022-10-16T07:16:14;100392.69;;;19.82;31.02
75505;BME280;64085;54.974;73.410;2022-10-16T07:18:40;100384.34;;;19.75;31.27
75505;BME280;64085;54.974;73.410;2022-10-16T07:23:40;100394.16;;;19.49;31.83
75505;BME280;64085;54.974;73.410;2022-10-16T07:26:07;100387.19;;;19.16;32.05
75505;BME280;64085;54.974;73.410;2022-10-16T07:28:33;100385.06;;;18.75;32.92
75505;BME280;64085;54.974;73.410;2022-10-16T07:31:03;100382.94;;;18.90;32.93
75505;BME280;64085;54.974;73.410;2022-10-16T07:33:30;100384.81;;;19.15;32.39
75505;BME280;64085;54.974;73.410;2022-10-16T07:35:56;100386.00;;;19.17;32.50
75505;BME280;64085;54.974;73.410;2022-10-16T07:38:22;100386.19;;;18.81;33.31
75505;BME280;64085;54.974;73.410;2022-10-16T07:40:48;100375.84;;;18.71;33.35
75505;BME280;64085;54.974;73.410;2022-10-16T07:43:14;100367.03;;;18.73;33.66
75505;BME280;64085;54.974;73.410;2022-10-16T07:45:48;100375.56;;;18.44;33.92
75505;BME280;64085;54.974;73.410;2022-10-16T07:48:14;100360.91;;;18.08;34.42
75505;BME280;64085;54.974;73.410;2022-10-16T07:50:41;100360.94;;;17.55;35.91
75505;BME280;64085;54.974;73.410;2022-10-16T07:53:07;100362.13;;;17.68;35.40
75505;BME280;64085;54.974;73.410;2022-10-16T07:55:33;100358.94;;;17.94;35.27
75505;BME280;64085;54.974;73.410;2022-10-16T07:57:58;100355.31;;;18.08;34.99
75505;BME280;64085;54.974;73.410;2022-10-16T08:00:24;100355.31;;;18.08;35.21
75505;BME280;64085;54.974;73.410;2022-10-16T08:02:50;100347.34;;;17.57;36.10
75505;BME280;64085;54.974;73.410;2022-10-16T08:05:16;100345.78;;;17.38;36.40
75505;BME280;64085;54.974;73.410;2022-10-16T08:07:41;100318.22;;;17.47;36.02
75505;BME280;64085;54.974;73.410;2022-10-16T08:10:18;100344.56;;;17.82;35.96
75505;BME280;64085;54.974;73.410;2022-10-16T08:12:44;100347.34;;;17.82;36.00
75505;BME280;64085;54.974;73.410;2022-10-16T08:15:10;100304.22;;;17.61;35.57
75505;BME280;64085;54.974;73.410;2022-10-16T08:17:37;100332.22;;;17.76;35.61
75505;BME280;64085;54.974;73.410;2022-10-16T08:20:04;100340.56;;;17.47;36.50
75505;BME280;64085;54.974;73.410;2022-10-16T08:22:30;100336.97;;;17.14;37.49
75505;BME280;64085;54.974;73.410;2022-10-16T08:24:55;100329.28;;;16.58;38.66
75505;BME280;64085;54.974;73.410;2022-10-16T08:27:21;100326.78;;;16.28;38.61
75505;BME280;64085;54.974;73.410;2022-10-16T08:29:48;100326.34;;;16.19;39.08
75505;BME280;64085;54.974;73.410;2022-10-16T08:32:14;100333.06;;;16.07;39.48
75505;BME280;64085;54.974;73.410;2022-10-16T08:34:40;100339.13;;;16.27;39.31
75505;BME280;64085;54.974;73.410;2022-10-16T08:37:06;100304.47;;;16.24;38.60
75505;BME280;64085;54.974;73.410;2022-10-16T08:39:36;100333.34;;;16.75;38.20
75505;BME280;64085;54.974;73.410;2022-10-16T08:45:25;100324.19;;;17.06;37.39
75505;BME280;64085;54.974;73.410;2022-10-16T08:50:43;100251.91;;;16.41;38.04
75505;BME280;64085;54.974;73.410;2022-10-16T08:53:20;100320.13;;;16.57;38.50
75505;BME280;64085;54.974;73.410;2022-10-16T08:55:53;100316.81;;;16.30;39.29
75505;BME280;64085;54.974;73.410;2022-10-16T08:58:25;100317.63;;;16.27;39.23
75505;BME280;64085;54.974;73.410;2022-10-16T09:01:11;100309.28;;;16.35;39.61
75505;BME280;64085;54.974;73.410;2022-10-16T09:06:52;100314.13;;;16.48;39.14
75505;BME280;64085;54.974;73.410;2022-10-16T09:17:36;100313.44;;;16.83;38.34
75505;BME280;64085;54.974;73.410;2022-10-16T09:20:19;100307.72;;;16.55;39.11
75505;BME280;64085;54.974;73.410;2022-10-16T09:22:53;100313.66;;;16.36;39.61
75505;BME280;64085;54.974;73.410;2022-10-16T09:25:21;100307.59;;;16.09;41.08
75505;BME280;64085;54.974;73.410;2022-10-16T09:27:52;100310.25;;;15.87;41.33
75505;BME280;64085;54.974;73.410;2022-10-16T09:30:20;100308.53;;;15.65;41.70
75505;BME280;64085;54.974;73.410;2022-10-16T09:32:48;100306.75;;;15.42;43.05
75505;BME280;64085;54.974;73.410;2022-10-16T09:35:33;100305.44;;;15.29;43.08
75505;BME280;64085;54.974;73.410;2022-10-16T09:38:00;100276.31;;;15.16;43.04
75505;BME280;64085;54.974;73.410;2022-10-16T09:40:33;100305.78;;;15.20;43.94
75505;BME280;64085;54.974;73.410;2022-10-16T09:43:19;100309.16;;;14.96;44.58
75505;BME280;64085;54.974;73.410;2022-10-16T09:48:21;100304.25;;;14.45;45.74
75505;BME280;64085;54.974;73.410;2022-10-16T09:51:02;100310.53;;;14.39;45.87
75505;BME280;64085;54.974;73.410;2022-10-16T09:53:40;100275.00;;;14.21;45.89
75505;BME280;64085;54.974;73.410;2022-10-16T09:56:06;100301.81;;;14.40;45.95
75505;BME280;64085;54.974;73.410;2022-10-16T09:58:33;100304.75;;;14.54;45.42
75505;BME280;64085;54.974;73.410;2022-10-16T10:00:59;100301.22;;;14.57;45.69
75505;BME280;64085;54.974;73.410;2022-10-16T10:03:39;100299.06;;;14.44;45.91
75505;BME280;64085;54.974;73.410;2022-10-16T10:06:22;100307.69;;;14.35;46.78
75505;BME280;64085;54.974;73.410;2022-10-16T10:16:48;100292.91;;;15.53;44.39
75505;BME280;64085;54.974;73.410;2022-10-16T10:19:23;100299.25;;;15.50;44.84
75505;BME280;64085;54.974;73.410;2022-10-16T10:21:50;100295.94;;;15.30;45.25
75505;BME280;64085;54.974;73.410;2022-10-16T10:24:18;100285.81;;;15.11;45.21
75505;BME280;64085;54.974;73.410;2022-10-16T10:26:54;100293.16;;;14.86;46.01
75505;BME280;64085;54.974;73.410;2022-10-16T10:29:42;100252.50;;;14.03;47.30
75505;BME280;64085;54.974;73.410;2022-10-16T10:35:17;100279.56;;;13.76;48.59
75505;BME280;64085;54.974;73.410;2022-10-16T10:40:33;100285.25;;;13.31;49.72
75505;BME280;64085;54.974;73.410;2022-10-16T10:43:05;100292.53;;;13.16;51.11
75505;BME280;64085;54.974;73.410;2022-10-16T10:45:44;100297.22;;;13.12;50.98
75505;BME280;64085;54.974;73.410;2022-10-16T10:51:07;100257.63;;;12.92;51.25
75505;BME280;64085;54.974;73.410;2022-10-16T10:56:41;100290.31;;;13.02;52.00
75505;BME280;64085;54.974;73.410;2022-10-16T11:07:30;100266.63;;;12.39;54.63
75505;BME280;64085;54.974;73.410;2022-10-16T11:13:39;100287.66;;;12.21;55.34
75505;BME280;64085;54.974;73.410;2022-10-16T11:16:20;100237.69;;;11.79;56.06
75505;BME280;64085;54.974;73.410;2022-10-16T11:18:55;100287.63;;;12.02;55.69
75505;BME280;64085;54.974;73.410;2022-10-16T11:21:24;100268.69;;;11.84;56.07
75505;BME280;64085;54.974;73.410;2022-10-16T11:26:56;100265.28;;;11.75;56.22
75505;BME280;64085;54.974;73.410;2022-10-16T11:29:29;100276.19;;;11.68;56.79
75505;BME280;64085;54.974;73.410;2022-10-16T11:32:05;100269.56;;;11.53;57.50
75505;BME280;64085;54.974;73.410;2022-10-16T11:34:47;100268.25;;;11.47;57.60
75505;BME280;64085;54.974;73.410;2022-10-16T11:37:30;100249.78;;;11.36;57.97
75505;BME280;64085;54.974;73.410;2022-10-16T11:40:23;100269.31;;;11.43;57.72
75505;BME280;64085;54.974;73.410;2022-10-16T11:45:57;100266.53;;;11.43;58.68
75505;BME280;64085;54.974;73.410;2022-10-16T11:51:09;100257.31;;;11.35;59.00
75505;BME280;64085;54.974;73.410;2022-10-16T11:56:41;100219.50;;;10.92;59.30
75505;BME280;64085;54.974;73.410;2022-10-16T12:00:02;100247.25;;;11.11;59.59
75505;BME280;64085;54.974;73.410;2022-10-16T12:10:27;100243.78;;;10.98;60.35
75505;BME280;64085;54.974;73.410;2022-10-16T12:12:54;100235.47;;;10.98;61.15
75505;BME280;64085;54.974;73.410;2022-10-16T12:15:29;100243.34;;;10.96;61.68
75505;BME280;64085;54.974;73.410;2022-10-16T12:17:56;100233.78;;;10.94;61.78
75505;BME280;64085;54.974;73.410;2022-10-16T12:20:28;100228.97;;;10.91;61.66
75505;BME280;64085;54.974;73.410;2022-10-16T12:23:06;100238.44;;;10.90;62.52
75505;BME280;64085;54.974;73.410;2022-10-16T12:25:39;100231.56;;;10.84;62.78
75505;BME280;64085;54.974;73.410;2022-10-16T12:30:41;100234.31;;;10.84;62.65
75505;BME280;64085;54.974;73.410;2022-10-16T12:35:52;100230.69;;;10.80;63.65
75505;BME280;64085;54.974;73.410;2022-10-16T12:38:27;100238.44;;;10.74;63.92
75505;BME280;64085;54.974;73.410;2022-10-16T12:43:28;100233.19;;;10.69;63.70
75505;BME280;64085;54.974;73.410;2022-10-16T12:46:00;100236.56;;;10.62;64.79
75505;BME280;64085;54.974;73.410;2022-10-16T12:48:26;100236.63;;;10.66;64.40
75505;BME280;64085;54.974;73.410;2022-10-16T12:50:53;100223.72;;;10.54;64.63
75505;BME280;64085;54.974;73.410;2022-10-16T12:53:21;100236.63;;;10.50;64.29
75505;BME280;64085;54.974;73.410;2022-10-16T12:56:19;100233.78;;;10.47;64.09
75505;BME280;64085;54.974;73.410;2022-10-16T12:59:10;100233.59;;;10.39;64.29
75505;BME280;64085;54.974;73.410;2022-10-16T13:10:08;100247.31;;;10.36;64.39
75505;BME280;64085;54.974;73.410;2022-10-16T13:18:25;100217.13;;;10.15;64.92
75505;BME280;64085;54.974;73.410;2022-10-16T13:29:10;100214.16;;;9.92;65.24
75505;BME280;64085;54.974;73.410;2022-10-16T13:31:37;100241.44;;;10.09;65.45
75505;BME280;64085;54.974;73.410;2022-10-16T13:34:05;100239.66;;;10.01;65.77
75505;BME280;64085;54.974;73.410;2022-10-16T13:36:46;100228.59;;;10.01;65.99
75505;BME280;64085;54.974;73.410;2022-10-16T13:41:43;100237.50;;;9.82;66.56
75505;BME280;64085;54.974;73.410;2022-10-16T13:44:18;100214.09;;;9.76;66.63
75505;BME280;64085;54.974;73.410;2022-10-16T13:46:45;100223.53;;;9.75;66.87
75505;BME280;64085;54.974;73.410;2022-10-16T13:49:14;100234.44;;;9.72;67.30
75505;BME280;64085;54.974;73.410;2022-10-16T13:51:41;100151.25;;;9.17;67.25
75505;BME280;64085;54.974;73.410;2022-10-16T13:54:09;100220.19;;;9.70;66.97
75505;BME280;64085;54.974;73.410;2022-10-16T13:56:39;100224.72;;;9.62;66.85
75505;BME280;64085;54.974;73.410;2022-10-16T13:59:22;100221.03;;;9.58;66.84
75505;BME280;64085;54.974;73.410;2022-10-16T14:01:48;100185.03;;;9.26;67.39
75505;BME280;64085;54.974;73.410;2022-10-16T14:04:15;100163.09;;;9.06;67.73
75505;BME280;64085;54.974;73.410;2022-10-16T14:06:46;100223.25;;;9.40;67.43
75505;BME280;64085;54.974;73.410;2022-10-16T14:09:26;100213.28;;;9.23;67.88
75505;BME280;64085;54.974;73.410;2022-10-16T14:11:59;100223.03;;;9.33;67.30
75505;BME280;64085;54.974;73.410;2022-10-16T14:14:29;100231.44;;;9.24;67.89
75505;BME280;64085;54.974;73.410;2022-10-16T14:16:59;100226.41;;;9.26;68.19
75505;BME280;64085;54.974;73.410;2022-10-16T14:19:27;100214.66;;;9.29;67.80
75505;BME280;64085;54.974;73.410;2022-10-16T14:21:54;100176.13;;;8.93;67.64
75505;BME280;64085;54.974;73.410;2022-10-16T14:24:33;100180.22;;;8.99;67.37
75505;BME280;64085;54.974;73.410;2022-10-16T14:27:00;100214.03;;;9.08;68.21
75505;BME280;64085;54.974;73.410;2022-10-16T14:29:28;100205.75;;;9.08;68.08
75505;BME280;64085;54.974;73.410;2022-10-16T14:32:00;100203.78;;;9.09;67.99
75505;BME280;64085;54.974;73.410;2022-10-16T14:34:37;100198.84;;;9.02;67.62
75505;BME280;64085;54.974;73.410;2022-10-16T14:37:15;100207.94;;;9.02;67.43
75505;BME280;64085;54.974;73.410;2022-10-16T14:39:49;100212.06;;;9.09;66.93
75505;BME280;64085;54.974;73.410;2022-10-16T14:42:17;100193.69;;;9.00;67.12
75505;BME280;64085;54.974;73.410;2022-10-16T14:44:45;100200.56;;;8.94;67.49
75505;BME280;64085;54.974;73.410;2022-10-16T14:47:17;100198.03;;;8.89;67.82
75505;BME280;64085;54.974;73.410;2022-10-16T14:49:47;100198.59;;;8.83;67.44
75505;BME280;64085;54.974;73.410;2022-10-16T14:52:13;100205.06;;;8.87;67.19
75505;BME280;64085;54.974;73.410;2022-10-16T14:54:40;100182.31;;;8.65;67.49